Time;durP1;ratioP1;P1;durP2;ratioP2;P2;SDS_P1;SDS_P2;PMS_P1;PMS_P2;Temp;Humidity;BMP_temperature;BMP_pressure;BME280_temperature;BME280_humidity;BME280_pressure;Samples;Min_cycle;Max_cycle;Signal;HPM_P1;HPM_P2
2022/02/28 00:00:16;;;;;;;0.80;0.80;;;;;;;;;;5030817;28;20199;-79
2022/02/28 00:02:44;;;;;;;0.60;0.60;;;;;;;;;;5030995;28;20298;-79
2022/02/28 00:05:11;;;;;;;0.70;0.70;;;;;;;;;;5031022;28;20195;-79
2022/02/28 00:07:39;;;;;;;0.80;0.80;;;;;;;;;;5031039;28;20194;-79
2022/02/28 00:10:07;;;;;;;0.60;0.60;;;;;;;;;;5030657;28;20278;-79
2022/02/28 00:12:37;;;;;;;0.57;0.57;;;;;;;;;;5030830;28;20293;-79
2022/02/28 00:15:06;;;;;;;0.63;0.63;;;;;;;;;;5031292;28;20247;-79
2022/02/28 00:17:34;;;;;;;0.50;0.50;;;;;;;;;;5030883;28;20603;-79
2022/02/28 00:20:02;;;;;;;1.03;0.67;;;;;;;;;;5030961;28;20256;-78
2022/02/28 00:22:29;;;;;;;0.60;0.57;;;;;;;;;;5030405;28;20219;-78
2022/02/28 00:24:56;;;;;;;0.87;0.60;;;;;;;;;;5030807;28;20198;-78
2022/02/28 00:27:23;;;;;;;0.53;0.53;;;;;;;;;;5030545;28;20202;-78
2022/02/28 00:29:52;;;;;;;0.60;0.60;;;;;;;;;;5030306;28;20321;-78
2022/02/28 00:32:20;;;;;;;0.30;0.30;;;;;;;;;;5030390;28;20199;-78
2022/02/28 00:34:47;;;;;;;0.33;0.33;;;;;;;;;;5030585;28;20659;-78
2022/02/28 00:37:14;;;;;;;0.50;0.50;;;;;;;;;;5030227;28;20639;-78
2022/02/28 00:39:41;;;;;;;0.50;0.40;;;;;;;;;;5030431;28;20620;-78
2022/02/28 00:42:09;;;;;;;0.40;0.40;;;;;;;;;;5030328;28;20313;-78
2022/02/28 00:44:36;;;;;;;0.40;0.40;;;;;;;;;;5030403;28;20277;-78
2022/02/28 00:47:06;;;;;;;0.90;0.90;;;;;;;;;;5030589;28;20199;-78
2022/02/28 00:49:33;;;;;;;0.63;0.63;;;;;;;;;;5030029;28;20255;-78
2022/02/28 00:52:01;;;;;;;0.47;0.47;;;;;;;;;;5029339;28;20201;-78
2022/02/28 00:54:28;;;;;;;0.53;0.53;;;;;;;;;;5029031;28;20600;-77
2022/02/28 00:56:56;;;;;;;0.40;0.40;;;;;;;;;;5029825;28;20625;-78
2022/02/28 00:59:23;;;;;;;0.40;0.40;;;;;;;;;;5030122;28;20290;-78
2022/02/28 01:01:51;;;;;;;0.40;0.40;;;;;;;;;;5029916;28;20685;-78
2022/02/28 01:04:20;;;;;;;0.63;0.63;;;;;;;;;;5030083;28;20205;-78
2022/02/28 01:06:47;;;;;;;0.30;0.30;;;;;;;;;;5030241;28;20667;-78
2022/02/28 01:09:15;;;;;;;0.30;0.30;;;;;;;;;;5029853;28;20250;-78
2022/02/28 01:11:42;;;;;;;0.40;0.40;;;;;;;;;;5029833;28;20225;-78
2022/02/28 01:14:10;;;;;;;0.50;0.50;;;;;;;;;;5030174;28;20230;-78
2022/02/28 01:16:37;;;;;;;0.60;0.60;;;;;;;;;;5029760;28;20228;-78
2022/02/28 01:19:05;;;;;;;0.57;0.57;;;;;;;;;;5028804;28;20203;-78
2022/02/28 01:21:33;;;;;;;0.60;0.60;;;;;;;;;;5029605;28;20711;-78
2022/02/28 01:24:01;;;;;;;0.60;0.60;;;;;;;;;;5030809;28;20197;-78
2022/02/28 01:26:28;;;;;;;0.53;0.53;;;;;;;;;;5029601;28;20256;-78
2022/02/28 01:28:55;;;;;;;0.63;0.63;;;;;;;;;;5029566;28;20213;-77
2022/02/28 01:31:22;;;;;;;0.40;0.40;;;;;;;;;;5029618;28;20589;-78
2022/02/28 01:33:50;;;;;;;0.60;0.60;;;;;;;;;;5029805;28;20206;-78
2022/02/28 01:36:17;;;;;;;0.50;0.50;;;;;;;;;;5029522;28;20194;-77
2022/02/28 01:38:46;;;;;;;0.60;0.60;;;;;;;;;;5029336;28;20203;-78
2022/02/28 01:41:13;;;;;;;0.50;0.50;;;;;;;;;;5029692;28;20277;-78
2022/02/28 01:43:40;;;;;;;0.60;0.60;;;;;;;;;;5029592;28;20209;-77
2022/02/28 01:46:08;;;;;;;0.50;0.50;;;;;;;;;;5029480;28;20206;-78
2022/02/28 01:48:35;;;;;;;0.60;0.60;;;;;;;;;;5029591;28;20207;-78
2022/02/28 01:51:02;;;;;;;5.30;0.93;;;;;;;;;;5029335;28;20237;-78
2022/02/28 01:53:29;;;;;;;0.60;0.60;;;;;;;;;;5029225;28;20667;-78
2022/02/28 01:55:58;;;;;;;0.60;0.60;;;;;;;;;;5029246;28;20202;-78
2022/02/28 01:58:25;;;;;;;0.70;0.70;;;;;;;;;;5028874;28;20205;-78
2022/02/28 02:00:53;;;;;;;0.80;0.80;;;;;;;;;;5029163;28;20234;-78
2022/02/28 02:03:20;;;;;;;0.70;0.70;;;;;;;;;;5029086;28;20289;-78
2022/02/28 02:05:47;;;;;;;0.80;0.80;;;;;;;;;;5029506;28;20264;-78
2022/02/28 02:08:15;;;;;;;0.70;0.70;;;;;;;;;;5029072;28;20686;-78
2022/02/28 02:10:42;;;;;;;0.67;0.67;;;;;;;;;;5029637;28;20226;-78
2022/02/28 02:13:11;;;;;;;0.70;0.70;;;;;;;;;;5028870;28;20194;-78
2022/02/28 02:15:39;;;;;;;0.50;0.50;;;;;;;;;;5029207;28;20267;-78
2022/02/28 02:18:06;;;;;;;0.60;0.60;;;;;;;;;;5029276;28;20567;-78
2022/02/28 02:20:37;;;;;;;0.70;0.70;;;;;;;;;;5029008;28;20671;-78
2022/02/28 02:23:06;;;;;;;0.60;0.60;;;;;;;;;;5028895;28;20253;-78
2022/02/28 02:25:35;;;;;;;0.83;0.83;;;;;;;;;;5028746;28;20202;-78
2022/02/28 02:28:03;;;;;;;0.80;0.80;;;;;;;;;;5028678;28;20209;-78
2022/02/28 02:30:31;;;;;;;0.90;0.90;;;;;;;;;;5028819;28;20230;-78
2022/02/28 02:32:58;;;;;;;0.70;0.70;;;;;;;;;;5031638;28;20209;-79
2022/02/28 02:35:26;;;;;;;0.73;0.73;;;;;;;;;;5033083;28;20256;-78
2022/02/28 02:37:54;;;;;;;0.60;0.60;;;;;;;;;;5032102;28;20209;-78
2022/02/28 02:40:22;;;;;;;0.60;0.60;;;;;;;;;;5032290;28;20671;-78
2022/02/28 02:42:49;;;;;;;0.70;0.70;;;;;;;;;;5032126;28;20309;-78
2022/02/28 02:45:17;;;;;;;0.53;0.53;;;;;;;;;;5031990;28;20195;-78
2022/02/28 02:47:44;;;;;;;0.60;0.60;;;;;;;;;;5032008;28;20199;-78
2022/02/28 02:50:11;;;;;;;0.60;0.60;;;;;;;;;;5032499;28;20198;-78
2022/02/28 02:52:38;;;;;;;0.60;0.60;;;;;;;;;;5031937;28;20289;-78
2022/02/28 02:55:09;;;;;;;0.80;0.80;;;;;;;;;;5032431;28;20235;-78
2022/02/28 02:57:36;;;;;;;0.60;0.60;;;;;;;;;;5031967;27;20663;-78
2022/02/28 03:00:08;;;;;;;0.90;0.90;;;;;;;;;;5032014;28;20237;-78
2022/02/28 03:02:35;;;;;;;0.90;0.90;;;;;;;;;;5031798;28;20663;-78
2022/02/28 03:05:02;;;;;;;0.80;0.80;;;;;;;;;;5031945;28;20205;-78
2022/02/28 03:07:29;;;;;;;0.70;0.70;;;;;;;;;;5031478;28;20205;-78
2022/02/28 03:09:57;;;;;;;0.70;0.70;;;;;;;;;;5031858;28;20238;-78
2022/02/28 03:12:25;;;;;;;0.70;0.70;;;;;;;;;;5031853;28;20289;-78
2022/02/28 03:14:52;;;;;;;0.73;0.73;;;;;;;;;;5031816;28;20286;-78
2022/02/28 03:17:20;;;;;;;0.73;0.73;;;;;;;;;;5031388;28;20199;-78
2022/02/28 03:19:47;;;;;;;0.90;0.90;;;;;;;;;;5031762;28;20194;-78
2022/02/28 03:22:14;;;;;;;0.67;0.67;;;;;;;;;;5031429;28;20261;-78
2022/02/28 03:24:41;;;;;;;0.60;0.60;;;;;;;;;;5031680;28;20238;-77
2022/02/28 03:27:09;;;;;;;0.77;0.77;;;;;;;;;;5031401;28;20238;-77
2022/02/28 03:29:38;;;;;;;0.80;0.80;;;;;;;;;;5031162;28;20378;-78
2022/02/28 03:32:06;;;;;;;1.10;1.10;;;;;;;;;;5031345;28;20209;-78
2022/02/28 03:34:33;;;;;;;0.80;0.80;;;;;;;;;;5031478;28;20199;-77
2022/02/28 03:37:00;;;;;;;0.80;0.80;;;;;;;;;;5031313;28;20667;-77
2022/02/28 03:39:28;;;;;;;1.00;0.90;;;;;;;;;;5031258;28;20272;-78
2022/02/28 03:41:55;;;;;;;0.70;0.70;;;;;;;;;;5030679;28;20227;-78
2022/02/28 03:44:23;;;;;;;0.87;0.87;;;;;;;;;;5031590;28;20254;-78
2022/02/28 03:46:52;;;;;;;1.40;1.30;;;;;;;;;;5031460;28;20286;-78
2022/02/28 03:49:20;;;;;;;0.80;0.80;;;;;;;;;;5030938;28;20242;-78
2022/02/28 03:51:48;;;;;;;0.83;0.83;;;;;;;;;;5031073;28;20201;-78
2022/02/28 03:54:15;;;;;;;0.90;0.90;;;;;;;;;;5031070;28;20206;-79
2022/02/28 03:56:44;;;;;;;1.70;1.60;;;;;;;;;;5030951;28;20687;-78
2022/02/28 03:59:13;;;;;;;1.40;1.30;;;;;;;;;;5031101;28;20285;-78
2022/02/28 04:01:41;;;;;;;1.00;1.00;;;;;;;;;;5030854;28;20198;-79
2022/02/28 04:04:10;;;;;;;1.20;1.20;;;;;;;;;;5031276;28;20230;-78
2022/02/28 04:06:37;;;;;;;1.73;1.50;;;;;;;;;;5030849;28;20202;-78
2022/02/28 04:09:05;;;;;;;1.10;1.10;;;;;;;;;;5030714;28;20202;-79
2022/02/28 04:11:35;;;;;;;1.50;1.40;;;;;;;;;;5030818;28;20671;-78
2022/02/28 04:14:03;;;;;;;0.87;0.87;;;;;;;;;;5031144;28;20195;-78
2022/02/28 04:16:30;;;;;;;1.00;1.00;;;;;;;;;;5030613;28;20203;-79
2022/02/28 04:18:57;;;;;;;1.10;1.10;;;;;;;;;;5029357;28;20222;-78
2022/02/28 04:21:26;;;;;;;0.80;0.80;;;;;;;;;;5029278;28;20199;-78
2022/02/28 04:23:53;;;;;;;0.97;0.97;;;;;;;;;;5029393;28;20703;-78
2022/02/28 04:26:21;;;;;;;1.27;1.17;;;;;;;;;;5041255;28;20206;-79
2022/02/28 04:28:48;;;;;;;0.90;0.90;;;;;;;;;;5048809;28;20204;-78
2022/02/28 04:31:16;;;;;;;0.93;0.93;;;;;;;;;;5049746;28;20183;-78
2022/02/28 04:33:43;;;;;;;1.10;1.10;;;;;;;;;;5048973;28;20284;-78
2022/02/28 04:36:10;;;;;;;0.87;0.87;;;;;;;;;;5049231;28;20206;-78
2022/02/28 04:38:39;;;;;;;0.80;0.80;;;;;;;;;;5049524;28;20301;-78
2022/02/28 04:41:06;;;;;;;0.90;0.90;;;;;;;;;;5049400;28;20235;-78
2022/02/28 04:43:33;;;;;;;0.80;0.80;;;;;;;;;;5049049;28;20264;-78
2022/02/28 04:46:01;;;;;;;1.13;1.13;;;;;;;;;;5048916;28;20693;-78
2022/02/28 04:48:28;;;;;;;1.50;1.40;;;;;;;;;;5048896;28;20198;-78
2022/02/28 04:50:56;;;;;;;1.07;1.07;;;;;;;;;;5049118;28;20202;-78
2022/02/28 04:53:23;;;;;;;0.90;0.90;;;;;;;;;;5048424;28;20198;-78
2022/02/28 04:55:52;;;;;;;0.90;0.90;;;;;;;;;;5048375;28;20288;-78
2022/02/28 04:58:20;;;;;;;2.00;1.80;;;;;;;;;;5048845;28;20292;-78
2022/02/28 05:00:47;;;;;;;1.70;1.60;;;;;;;;;;5048841;28;20205;-78
2022/02/28 05:03:14;;;;;;;1.83;1.73;;;;;;;;;;5048662;28;20218;-78
2022/02/28 05:05:42;;;;;;;3.40;2.53;;;;;;;;;;5049189;28;20276;-78
2022/02/28 05:08:09;;;;;;;2.07;1.77;;;;;;;;;;5048683;28;20202;-79
2022/02/28 05:10:37;;;;;;;3.30;2.00;;;;;;;;;;5048803;28;20251;-79
2022/02/28 05:13:05;;;;;;;1.80;1.57;;;;;;;;;;5048262;28;20202;-79
2022/02/28 05:15:33;;;;;;;1.17;1.10;;;;;;;;;;5048502;28;20228;-79
2022/02/28 05:18:00;;;;;;;1.40;1.30;;;;;;;;;;5048463;28;20198;-79
2022/02/28 05:20:27;;;;;;;1.40;1.40;;;;;;;;;;5048662;28;20204;-79
2022/02/28 05:22:54;;;;;;;1.03;1.03;;;;;;;;;;5048408;28;20313;-79
2022/02/28 05:25:22;;;;;;;0.80;0.80;;;;;;;;;;5049596;28;20285;-79
2022/02/28 05:27:49;;;;;;;0.80;0.80;;;;;;;;;;5049339;28;20288;-79
2022/02/28 05:30:18;;;;;;;0.90;0.90;;;;;;;;;;5049578;28;20241;-78
2022/02/28 05:32:45;;;;;;;0.80;0.80;;;;;;;;;;5049433;28;20284;-79
2022/02/28 05:35:14;;;;;;;1.07;0.90;;;;;;;;;;5049221;28;20705;-79
2022/02/28 05:37:42;;;;;;;0.80;0.80;;;;;;;;;;5049308;28;20293;-79
2022/02/28 05:40:11;;;;;;;0.63;0.63;;;;;;;;;;5049378;28;20262;-79
2022/02/28 05:42:39;;;;;;;0.70;0.70;;;;;;;;;;5049284;28;20229;-79
2022/02/28 05:45:07;;;;;;;0.70;0.70;;;;;;;;;;5049472;28;20202;-79
2022/02/28 05:47:36;;;;;;;0.73;0.73;;;;;;;;;;5049176;28;20202;-79
2022/02/28 05:50:04;;;;;;;0.63;0.63;;;;;;;;;;5049283;28;20237;-79
2022/02/28 05:52:31;;;;;;;1.00;1.00;;;;;;;;;;5048776;28;20768;-78
2022/02/28 05:54:58;;;;;;;0.60;0.60;;;;;;;;;;5049222;28;20293;-79
2022/02/28 05:57:25;;;;;;;0.70;0.70;;;;;;;;;;5048911;28;20237;-79
2022/02/28 05:59:53;;;;;;;1.00;1.00;;;;;;;;;;5049090;28;20198;-79
2022/02/28 06:02:20;;;;;;;1.50;0.60;;;;;;;;;;5048663;28;20217;-79
2022/02/28 06:04:49;;;;;;;0.77;0.77;;;;;;;;;;5048972;28;20198;-79
2022/02/28 06:07:16;;;;;;;0.50;0.50;;;;;;;;;;5048604;28;20726;-79
2022/02/28 06:09:43;;;;;;;0.80;0.80;;;;;;;;;;5048976;28;20236;-79
2022/02/28 06:12:11;;;;;;;1.10;1.10;;;;;;;;;;5048392;28;20202;-79
2022/02/28 06:14:38;;;;;;;0.77;0.77;;;;;;;;;;5049502;28;20260;-79
2022/02/28 06:17:06;;;;;;;0.63;0.63;;;;;;;;;;5049153;28;20589;-79
2022/02/28 06:19:33;;;;;;;1.00;1.00;;;;;;;;;;5048854;28;20190;-79
2022/02/28 06:22:02;;;;;;;0.87;0.87;;;;;;;;;;5048631;28;20198;-79
2022/02/28 06:24:29;;;;;;;0.90;0.90;;;;;;;;;;5048643;28;20226;-79
2022/02/28 06:26:56;;;;;;;0.80;0.80;;;;;;;;;;5048573;28;20206;-79
2022/02/28 06:29:23;;;;;;;1.00;1.00;;;;;;;;;;5048460;28;20238;-79
2022/02/28 06:31:51;;;;;;;0.87;0.87;;;;;;;;;;5048573;28;20659;-79
2022/02/28 06:34:18;;;;;;;1.13;1.00;;;;;;;;;;5048566;28;20241;-79
2022/02/28 06:36:45;;;;;;;1.20;1.20;;;;;;;;;;5048784;28;20202;-79
2022/02/28 06:39:14;;;;;;;2.80;2.50;;;;;;;;;;5048632;28;20589;-79
2022/02/28 06:41:42;;;;;;;1.60;1.50;;;;;;;;;;5048524;28;20205;-79
2022/02/28 06:44:10;;;;;;;1.10;1.10;;;;;;;;;;5048245;28;20268;-79
2022/02/28 06:46:37;;;;;;;1.03;1.00;;;;;;;;;;5048217;28;20285;-79
2022/02/28 06:49:04;;;;;;;1.00;0.97;;;;;;;;;;5048473;28;20202;-79
2022/02/28 06:51:31;;;;;;;1.00;1.00;;;;;;;;;;5048554;28;20206;-78
2022/02/28 06:53:59;;;;;;;0.80;0.80;;;;;;;;;;5048676;28;20200;-78
2022/02/28 06:56:27;;;;;;;1.10;1.10;;;;;;;;;;5048114;28;20204;-78
2022/02/28 06:58:55;;;;;;;1.60;1.47;;;;;;;;;;5048658;28;20202;-79
2022/02/28 07:01:22;;;;;;;1.60;1.50;;;;;;;;;;5047927;28;20551;-79
2022/02/28 07:03:50;;;;;;;31.37;22.50;;;;;;;;;;5048232;28;20226;-78
2022/02/28 07:06:22;;;;;;;6.00;4.53;;;;;;;;;;5048539;28;20198;-79
2022/02/28 07:08:49;;;;;;;1.60;1.50;;;;;;;;;;5048185;28;20186;-79
2022/02/28 07:11:17;;;;;;;1.50;1.40;;;;;;;;;;5048559;28;20220;-80
2022/02/28 07:13:48;;;;;;;27.90;15.50;;;;;;;;;;5048288;28;20323;-79
2022/02/28 07:16:16;;;;;;;20.93;13.87;;;;;;;;;;5048494;28;20186;-79
2022/02/28 07:18:43;;;;;;;14.03;10.50;;;;;;;;;;5050824;28;20251;-80
2022/02/28 07:21:11;;;;;;;5.47;3.73;;;;;;;;;;5051466;28;20294;-80
2022/02/28 07:23:38;;;;;;;5.10;4.60;;;;;;;;;;5050333;28;20228;-79
2022/02/28 07:26:05;;;;;;;2.40;2.20;;;;;;;;;;5050065;28;20202;-80
2022/02/28 07:28:32;;;;;;;1.83;1.73;;;;;;;;;;5051560;28;20229;-80
2022/02/28 07:31:01;;;;;;;1.70;1.60;;;;;;;;;;5051455;28;20261;-80
2022/02/28 07:33:28;;;;;;;1.70;1.60;;;;;;;;;;5051219;28;20284;-80
2022/02/28 07:35:56;;;;;;;1.50;1.40;;;;;;;;;;5051519;28;20641;-80
2022/02/28 07:38:23;;;;;;;1.33;1.33;;;;;;;;;;5051520;28;20284;-80
2022/02/28 07:40:51;;;;;;;1.50;1.40;;;;;;;;;;5051571;28;20198;-80
2022/02/28 07:43:18;;;;;;;1.23;1.20;;;;;;;;;;5050881;28;20260;-80
2022/02/28 07:45:45;;;;;;;1.63;1.53;;;;;;;;;;5051007;28;20200;-80
2022/02/28 07:48:14;;;;;;;1.70;1.60;;;;;;;;;;5051298;28;20253;-80
2022/02/28 07:50:41;;;;;;;2.03;1.80;;;;;;;;;;5051494;28;20201;-81
2022/02/28 07:53:09;;;;;;;2.83;2.50;;;;;;;;;;5051234;28;20614;-81
2022/02/28 07:55:36;;;;;;;1.87;1.77;;;;;;;;;;5051175;28;20194;-81
2022/02/28 07:58:03;;;;;;;1.53;1.43;;;;;;;;;;5050859;28;20209;-81
2022/02/28 08:00:32;;;;;;;2.30;2.10;;;;;;;;;;5051274;28;20216;-81
2022/02/28 08:02:59;;;;;;;1.93;1.77;;;;;;;;;;5050372;28;20670;-81
2022/02/28 08:05:28;;;;;;;1.50;1.40;;;;;;;;;;5050923;28;20205;-80
2022/02/28 08:07:56;;;;;;;4.73;3.93;;;;;;;;;;5050688;28;20650;-81
2022/02/28 08:10:23;;;;;;;1.70;1.60;;;;;;;;;;5050792;28;20209;-80
2022/02/28 08:12:51;;;;;;;1.20;1.20;;;;;;;;;;5050549;28;20205;-80
2022/02/28 08:15:18;;;;;;;1.53;1.43;;;;;;;;;;5050951;28;20208;-81
2022/02/28 08:17:47;;;;;;;2.80;2.60;;;;;;;;;;5050815;28;20229;-80
2022/02/28 08:20:14;;;;;;;2.80;2.60;;;;;;;;;;5050668;28;20198;-81
2022/02/28 08:22:43;;;;;;;1.53;1.43;;;;;;;;;;5050241;28;20194;-80
2022/02/28 08:25:11;;;;;;;1.80;1.70;;;;;;;;;;5050776;28;20298;-81
2022/02/28 08:27:38;;;;;;;3.67;2.13;;;;;;;;;;5050591;28;20618;-81
2022/02/28 08:30:07;;;;;;;2.20;2.10;;;;;;;;;;5050222;28;20236;-81
2022/02/28 08:32:34;;;;;;;2.53;2.33;;;;;;;;;;5050121;28;20641;-81
2022/02/28 08:35:01;;;;;;;1.67;1.57;;;;;;;;;;5050427;28;20229;-81
2022/02/28 08:37:29;;;;;;;1.53;1.43;;;;;;;;;;5050154;28;20229;-81
2022/02/28 08:39:59;;;;;;;2.47;2.27;;;;;;;;;;5050472;28;20284;-81
2022/02/28 08:42:26;;;;;;;3.07;2.87;;;;;;;;;;5049899;28;20667;-81
2022/02/28 08:44:53;;;;;;;2.13;2.00;;;;;;;;;;5050267;28;20741;-81
2022/02/28 08:47:20;;;;;;;1.80;1.70;;;;;;;;;;5050052;28;20259;-81
2022/02/28 08:49:48;;;;;;;4.27;3.87;;;;;;;;;;5050198;28;20250;-80
2022/02/28 08:52:15;;;;;;;1.67;1.57;;;;;;;;;;5049785;28;20285;-81
2022/02/28 08:54:42;;;;;;;1.50;1.40;;;;;;;;;;5050455;28;20582;-80
2022/02/28 08:57:11;;;;;;;2.03;1.93;;;;;;;;;;5050177;28;20248;-81
2022/02/28 08:59:38;;;;;;;1.23;1.23;;;;;;;;;;5050033;28;20202;-81
2022/02/28 09:02:06;;;;;;;2.43;2.33;;;;;;;;;;5049675;28;20193;-81
2022/02/28 09:04:33;;;;;;;2.83;2.53;;;;;;;;;;5050442;28;20687;-82
2022/02/28 09:07:00;;;;;;;3.00;2.80;;;;;;;;;;5049992;28;20220;-81
2022/02/28 09:09:28;;;;;;;2.40;2.20;;;;;;;;;;5050238;28;20662;-81
2022/02/28 09:11:55;;;;;;;1.67;1.57;;;;;;;;;;5049461;28;20202;-81
2022/02/28 09:14:24;;;;;;;1.57;1.47;;;;;;;;;;5049764;28;20311;-81
2022/02/28 09:16:51;;;;;;;1.50;1.40;;;;;;;;;;5049603;28;20204;-81
2022/02/28 09:19:18;;;;;;;1.37;1.37;;;;;;;;;;5049787;28;20646;-81
2022/02/28 09:21:46;;;;;;;1.27;1.20;;;;;;;;;;5049836;28;20241;-81
2022/02/28 09:24:13;;;;;;;1.50;1.40;;;;;;;;;;5049607;28;20218;-82
2022/02/28 09:26:42;;;;;;;1.40;1.40;;;;;;;;;;5049244;28;20237;-81
2022/02/28 09:29:09;;;;;;;1.33;1.27;;;;;;;;;;5048982;28;20226;-82
2022/02/28 09:31:38;;;;;;;1.60;1.50;;;;;;;;;;5049448;28;20242;-81
2022/02/28 09:34:05;;;;;;;2.70;2.23;;;;;;;;;;5049827;28;20198;-82
2022/02/28 09:36:32;;;;;;;1.77;1.67;;;;;;;;;;5049416;28;20285;-82
2022/02/28 09:39:01;;;;;;;2.27;1.83;;;;;;;;;;5049574;28;20209;-82
2022/02/28 09:41:29;;;;;;;1.50;1.40;;;;;;;;;;5048950;28;20208;-82
2022/02/28 09:43:57;;;;;;;1.43;1.33;;;;;;;;;;5049743;28;20228;-83
2022/02/28 09:46:25;;;;;;;1.77;1.67;;;;;;;;;;5049390;28;20194;-80
2022/02/28 09:48:58;;;;;;;1.30;1.30;;;;;;;;;;5049580;28;20784;-83
2022/02/28 09:51:25;;;;;;;1.40;1.30;;;;;;;;;;5049122;28;20192;-80
2022/02/28 09:53:52;;;;;;;1.60;1.50;;;;;;;;;;5049186;28;20202;-80
2022/02/28 09:56:23;;;;;;;1.33;1.27;;;;;;;;;;5049490;28;20587;-80
2022/02/28 09:58:51;;;;;;;1.40;1.30;;;;;;;;;;5048994;28;20670;-81
2022/02/28 10:01:18;;;;;;;1.20;1.20;;;;;;;;;;5049267;28;20205;-80
2022/02/28 10:03:45;;;;;;;2.90;2.70;;;;;;;;;;5048990;28;20312;-81
2022/02/28 10:06:14;;;;;;;2.10;1.90;;;;;;;;;;5048982;28;20288;-81
2022/02/28 10:08:43;;;;;;;1.70;1.60;;;;;;;;;;5048872;28;20205;-81
2022/02/28 10:11:24;;;;;;;1.63;1.53;;;;;;;;;;5049274;28;20198;-81
2022/02/28 10:13:52;;;;;;;2.20;2.10;;;;;;;;;;5048927;28;20193;-81
2022/02/28 10:16:31;;;;;;;1.93;1.83;;;;;;;;;;5049079;28;20193;-82
2022/02/28 10:18:58;;;;;;;2.50;2.30;;;;;;;;;;5048829;28;20631;-82
2022/02/28 10:21:42;;;;;;;1.30;1.30;;;;;;;;;;5048728;28;20690;-82
2022/02/28 10:24:09;;;;;;;1.57;1.47;;;;;;;;;;5048832;28;20209;-82
2022/02/28 10:26:42;;;;;;;1.90;1.40;;;;;;;;;;5048449;28;20297;-82
2022/02/28 10:29:11;;;;;;;1.60;1.50;;;;;;;;;;5048567;28;20332;-82
2022/02/28 10:31:40;;;;;;;1.80;1.70;;;;;;;;;;5048684;28;20205;-82
2022/02/28 10:34:18;;;;;;;1.50;1.40;;;;;;;;;;5048986;28;20621;-82
2022/02/28 10:36:48;;;;;;;1.43;1.33;;;;;;;;;;5048634;28;20194;-82
2022/02/28 10:39:18;;;;;;;1.33;1.33;;;;;;;;;;5049214;28;20190;-82
2022/02/28 10:41:45;;;;;;;1.60;1.50;;;;;;;;;;5048898;28;20224;-82
2022/02/28 10:44:15;;;;;;;2.47;1.50;;;;;;;;;;5048531;28;20224;-82
2022/02/28 10:46:44;;;;;;;1.50;1.40;;;;;;;;;;5048843;28;20195;-82
2022/02/28 10:49:16;;;;;;;1.93;1.73;;;;;;;;;;5048604;28;20301;-81
2022/02/28 10:51:50;;;;;;;1.57;1.47;;;;;;;;;;5048444;28;20654;-82
2022/02/28 10:54:25;;;;;;;1.60;1.50;;;;;;;;;;5051955;28;20659;-82
2022/02/28 10:56:58;;;;;;;1.40;1.30;;;;;;;;;;5051953;28;20277;-82
2022/02/28 10:59:27;;;;;;;1.60;1.50;;;;;;;;;;5052186;28;20247;-82
2022/02/28 11:01:55;;;;;;;1.67;1.57;;;;;;;;;;5052170;28;20284;-82
2022/02/28 11:04:34;;;;;;;1.33;1.30;;;;;;;;;;5052229;28;20313;-82
2022/02/28 11:07:04;;;;;;;3.33;2.90;;;;;;;;;;5051639;28;20670;-82
2022/02/28 11:09:34;;;;;;;3.77;3.47;;;;;;;;;;5051706;28;20198;-82
2022/02/28 11:12:19;;;;;;;2.40;2.20;;;;;;;;;;5051887;28;20197;-82
2022/02/28 11:14:48;;;;;;;3.47;3.17;;;;;;;;;;5058851;27;20194;-83
2022/02/28 11:17:18;;;;;;;2.37;1.73;;;;;;;;;;5052541;28;20239;-83
2022/02/28 11:19:47;;;;;;;1.80;1.70;;;;;;;;;;5051768;28;20189;-83
2022/02/28 11:22:15;;;;;;;1.70;1.60;;;;;;;;;;5051866;28;20222;-83
2022/02/28 11:24:43;;;;;;;1.67;1.57;;;;;;;;;;5051521;28;20312;-82
2022/02/28 11:27:10;;;;;;;2.03;1.93;;;;;;;;;;5051666;28;20642;-83
2022/02/28 11:29:37;;;;;;;1.90;1.80;;;;;;;;;;5051116;28;20324;-83
2022/02/28 11:32:09;;;;;;;1.40;1.40;;;;;;;;;;5051221;28;20198;-83
2022/02/28 11:34:36;;;;;;;1.70;1.60;;;;;;;;;;5051462;28;20273;-83
2022/02/28 11:37:05;;;;;;;1.73;1.63;;;;;;;;;;5051543;28;20198;-82
2022/02/28 11:39:37;;;;;;;2.50;2.30;;;;;;;;;;5051152;28;20198;-82
2022/02/28 11:42:08;;;;;;;2.13;2.03;;;;;;;;;;5051392;28;20201;-82
2022/02/28 11:44:37;;;;;;;1.60;1.50;;;;;;;;;;5051272;28;20233;-82
2022/02/28 11:47:13;;;;;;;2.13;2.03;;;;;;;;;;5050976;28;20198;-82
2022/02/28 11:49:42;;;;;;;2.33;1.57;;;;;;;;;;5051070;28;20235;-82
2022/02/28 11:52:28;;;;;;;2.50;2.30;;;;;;;;;;5051110;28;20209;-82
2022/02/28 11:55:01;;;;;;;2.70;2.50;;;;;;;;;;5051239;27;20705;-81
2022/02/28 11:57:53;;;;;;;1.60;1.50;;;;;;;;;;5050760;28;20647;-82
2022/02/28 12:00:39;;;;;;;1.77;1.67;;;;;;;;;;5051021;28;20186;-82
2022/02/28 12:03:11;;;;;;;2.93;2.40;;;;;;;;;;5050755;28;20209;-82
2022/02/28 12:05:39;;;;;;;1.93;1.83;;;;;;;;;;5051206;28;20206;-81
2022/02/28 12:08:08;;;;;;;2.17;2.07;;;;;;;;;;5050582;28;20198;-81
2022/02/28 12:10:37;;;;;;;1.83;1.73;;;;;;;;;;5051092;28;20225;-81
2022/02/28 12:13:05;;;;;;;2.00;1.90;;;;;;;;;;5050965;28;20194;-81
2022/02/28 12:15:32;;;;;;;3.50;3.20;;;;;;;;;;5050773;28;20210;-81
2022/02/28 12:18:17;;;;;;;2.63;2.43;;;;;;;;;;5050647;28;20288;-81
2022/02/28 12:20:46;;;;;;;2.10;2.00;;;;;;;;;;5050557;28;20247;-81
2022/02/28 12:23:22;;;;;;;3.83;3.40;;;;;;;;;;5050469;28;20612;-81
2022/02/28 12:26:08;;;;;;;1.93;1.80;;;;;;;;;;5050585;28;20221;-81
2022/02/28 12:28:49;;;;;;;2.00;1.90;;;;;;;;;;5050621;28;20186;-80
2022/02/28 12:31:32;;;;;;;2.57;2.37;;;;;;;;;;5114214;27;20187;-80
2022/02/28 12:34:06;;;;;;;3.67;3.37;;;;;;;;;;5114640;28;20176;-80
2022/02/28 12:36:33;;;;;;;4.33;4.03;;;;;;;;;;5114057;28;20236;-80
2022/02/28 12:39:04;;;;;;;2.87;2.67;;;;;;;;;;5114736;28;20620;-80
2022/02/28 12:41:35;;;;;;;2.50;2.30;;;;;;;;;;5113758;28;20278;-81
2022/02/28 12:44:04;;;;;;;3.20;2.90;;;;;;;;;;5114169;28;20196;-81
2022/02/28 12:46:35;;;;;;;2.37;2.17;;;;;;;;;;5113708;28;20699;-81
2022/02/28 12:49:03;;;;;;;2.27;2.10;;;;;;;;;;5114337;28;20266;-80
2022/02/28 12:51:32;;;;;;;4.00;3.67;;;;;;;;;;5113858;28;20637;-81
2022/02/28 12:54:07;;;;;;;2.60;2.40;;;;;;;;;;5114118;28;20196;-80
2022/02/28 12:56:42;;;;;;;2.27;2.07;;;;;;;;;;5113651;28;20175;-80
2022/02/28 12:59:10;;;;;;;2.30;2.20;;;;;;;;;;5113770;28;20209;-81
2022/02/28 13:01:37;;;;;;;5.30;3.30;;;;;;;;;;5113646;28;20626;-80
2022/02/28 13:04:07;;;;;;;3.77;2.70;;;;;;;;;;5113616;28;20290;-81
2022/02/28 13:06:36;;;;;;;4.27;3.87;;;;;;;;;;5113363;28;20216;-80
2022/02/28 13:09:06;;;;;;;3.90;3.50;;;;;;;;;;5113346;28;20302;-80
2022/02/28 13:11:35;;;;;;;2.57;2.30;;;;;;;;;;5113483;28;20188;-80
2022/02/28 13:14:05;;;;;;;2.77;2.57;;;;;;;;;;5113393;28;20224;-81
2022/02/28 13:16:34;;;;;;;2.30;2.20;;;;;;;;;;5112434;28;20244;-80
2022/02/28 13:19:03;;;;;;;2.60;2.40;;;;;;;;;;5113361;28;20232;-81
2022/02/28 13:21:32;;;;;;;3.70;3.30;;;;;;;;;;5112869;28;20692;-81
2022/02/28 13:24:09;;;;;;;3.20;3.00;;;;;;;;;;5113659;28;20246;-81
2022/02/28 13:26:37;;;;;;;3.70;2.77;;;;;;;;;;5113326;28;20203;-81
2022/02/28 13:29:07;;;;;;;5.17;3.60;;;;;;;;;;5104511;28;20286;-81
2022/02/28 13:31:36;;;;;;;5.37;4.87;;;;;;;;;;5049676;28;20205;-81
2022/02/28 13:34:06;;;;;;;3.43;2.80;;;;;;;;;;5049979;28;20581;-81
2022/02/28 13:36:35;;;;;;;3.37;2.93;;;;;;;;;;5049732;28;20226;-82
2022/02/28 13:39:03;;;;;;;5.23;4.73;;;;;;;;;;5049354;28;20229;-81
2022/02/28 13:41:31;;;;;;;3.30;3.10;;;;;;;;;;5049127;28;20197;-81
2022/02/28 13:43:59;;;;;;;3.00;2.80;;;;;;;;;;5049554;28;20189;-82
2022/02/28 13:46:28;;;;;;;3.30;3.03;;;;;;;;;;5049492;28;20225;-82
2022/02/28 13:48:56;;;;;;;10.73;5.77;;;;;;;;;;5049424;28;20614;-82
2022/02/28 13:51:24;;;;;;;3.57;3.27;;;;;;;;;;5051039;28;20198;-86
2022/02/28 13:53:52;;;;;;;3.77;3.47;;;;;;;;;;5051890;28;20202;-83
2022/02/28 13:56:29;;;;;;;3.27;3.00;;;;;;;;;;5051688;28;20205;-81
2022/02/28 13:59:08;;;;;;;3.40;3.20;;;;;;;;;;5055515;28;20188;-82
2022/02/28 14:01:38;;;;;;;4.53;4.13;;;;;;;;;;5055247;28;20235;-83
2022/02/28 14:04:06;;;;;;;3.83;3.50;;;;;;;;;;5057689;28;20194;-83
2022/02/28 14:06:34;;;;;;;4.30;3.90;;;;;;;;;;5051276;28;20229;-83
2022/02/28 14:09:01;;;;;;;3.57;3.27;;;;;;;;;;5055942;28;20289;-83
2022/02/28 14:11:30;;;;;;;4.53;4.13;;;;;;;;;;5052488;28;20280;-87
2022/02/28 14:13:58;;;;;;;3.77;3.40;;;;;;;;;;5053870;28;20204;-84
2022/02/28 14:16:27;;;;;;;10.03;6.67;;;;;;;;;;5051717;28;20270;-84
2022/02/28 14:19:05;;;;;;;4.80;3.87;;;;;;;;;;5056642;28;20761;-87
2022/02/28 14:21:37;;;;;;;4.53;3.80;;;;;;;;;;5049856;28;20215;-83
2022/02/28 14:24:09;;;;;;;4.17;3.77;;;;;;;;;;5051563;28;20193;-82
2022/02/28 14:26:37;;;;;;;12.30;8.07;;;;;;;;;;5059439;28;20213;-86
2022/02/28 14:29:07;;;;;;;17.40;10.23;;;;;;;;;;5063238;28;20735;-86
2022/02/28 14:31:43;;;;;;;15.17;9.20;;;;;;;;;;5063047;28;20195;-82
2022/02/28 14:34:12;;;;;;;8.53;7.27;;;;;;;;;;5058448;28;20189;-81
2022/02/28 14:36:40;;;;;;;4.60;4.07;;;;;;;;;;5060284;27;20198;-82
2022/02/28 14:39:08;;;;;;;4.20;3.90;;;;;;;;;;5055454;28;20204;-82
2022/02/28 14:41:36;;;;;;;4.30;3.90;;;;;;;;;;5055249;28;20197;-81
2022/02/28 14:44:05;;;;;;;4.20;3.80;;;;;;;;;;5055521;27;20273;-82
2022/02/28 14:46:33;;;;;;;4.40;4.00;;;;;;;;;;5055399;27;20626;-81
2022/02/28 14:49:00;;;;;;;2.80;2.60;;;;;;;;;;5055026;28;20229;-82
2022/02/28 14:51:29;;;;;;;5.03;4.53;;;;;;;;;;5055390;28;20197;-82